Time,TemperatureF,DewpointF,PressureIn,WindDirection,WindDirectionDegrees,WindSpeedMPH,WindSpeedGustMPH,Humidity,HourlyPrecipIn,Conditions,Clouds,dailyrainin,SoftwareType,DateUTC
2013-11-30 00:22:00,30.0,21.0,-100.00,SE,130,0.0,0.0,67,-99.99,,,-99.99,,2013-11-30 06:22:00,
2013-11-30 00:52:00,31.0,22.0,-100.00,SE,140,0.0,0.0,69,-99.99,,,-99.99,,2013-11-30 06:52:00,
2013-11-30 01:21:00,31.0,22.0,-100.00,SE,140,0.0,0.0,68,-99.99,,,-99.99,,2013-11-30 07:21:00,
2013-11-30 01:52:00,31.0,22.0,-100.00,SE,135,0.0,0.0,69,-99.99,,,-99.99,,2013-11-30 07:52:00,
2013-11-30 02:22:00,31.0,22.0,-100.00,SE,140,0.0,11.0,70,-99.99,,,-99.99,,2013-11-30 08:22:00,
2013-11-30 02:52:00,30.0,22.0,-100.00,SE,135,0.0,0.0,73,-99.99,,,-99.99,,2013-11-30 08:52:00,
2013-11-30 03:21:00,30.0,23.0,-100.00,SE,125,0.0,0.0,75,-99.99,,,-99.99,,2013-11-30 09:21:00,
2013-11-30 03:54:00,29.0,23.0,-100.00,SSE,160,0.0,0.0,77,-99.99,,,-99.99,,2013-11-30 09:54:00,
2013-11-30 04:23:00,29.0,23.0,-100.00,SE,140,0.0,0.0,79,-99.99,,,-99.99,,2013-11-30 10:23:00,
2013-11-30 04:53:00,28.0,23.0,-100.00,South,170,0.0,0.0,80,-99.99,,,-99.99,,2013-11-30 10:53:00,
2013-11-30 05:22:00,28.0,23.0,-100.00,SSE,150,0.0,0.0,81,-99.99,,,-99.99,,2013-11-30 11:22:00,
2013-11-30 05:52:00,27.0,23.0,-100.00,SSE,150,0.0,0.0,83,-99.99,,,-99.99,,2013-11-30 11:52:00,
2013-11-30 06:22:00,27.0,23.0,-100.00,SE,145,0.0,0.0,84,-99.99,,,-99.99,,2013-11-30 12:22:00,
2013-11-30 06:52:00,28.0,24.0,-100.00,South,185,0.0,0.0,83,-99.99,,,-99.99,,2013-11-30 12:52:00,
2013-11-30 07:21:00,29.0,24.0,-100.00,SSE,160,0.0,0.0,84,-99.99,,,-99.99,,2013-11-30 13:21:00,
2013-11-30 07:52:00,29.0,25.0,-100.00,SE,135,0.0,0.0,86,-99.99,,,-99.99,,2013-11-30 13:52:00,
2013-11-30 08:22:00,29.0,25.0,-100.00,SSE,160,0.0,0.0,84,-99.99,,,-99.99,,2013-11-30 14:22:00,
2013-11-30 08:53:00,33.0,27.0,-100.00,SSE,160,0.0,0.0,79,-99.99,,,-99.99,,2013-11-30 14:53:00,
2013-11-30 09:21:00,37.0,28.0,-100.00,SSW,200,0.0,0.0,70,-99.99,,,-99.99,,2013-11-30 15:21:00,
2013-11-30 09:54:00,39.0,29.0,-100.00,SSW,200,0.0,0.0,65,-99.99,,,-99.99,,2013-11-30 15:54:00,
2013-11-30 10:23:00,41.0,28.0,-100.00,South,180,4.0,14.0,59,-99.99,,,-99.99,,2013-11-30 16:23:00,
2013-11-30 10:53:00,44.0,28.0,-100.00,SSW,205,0.0,2.0,54,-99.99,,,-99.99,,2013-11-30 16:53:00,
2013-11-30 11:22:00,47.0,30.0,-100.00,SW,215,0.0,4.0,50,-99.99,,,-99.99,,2013-11-30 17:22:00,
2013-11-30 11:53:00,49.0,30.0,-100.00,SSW,200,0.0,11.0,48,-99.99,,,-99.99,,2013-11-30 17:53:00,
2013-11-30 12:21:00,49.0,30.0,-100.00,SW,225,0.0,7.0,48,-99.99,,,-99.99,,2013-11-30 18:21:00,
2013-11-30 12:52:00,49.0,30.0,-100.00,SSE,160,3.0,14.0,48,-99.99,,,-99.99,,2013-11-30 18:52:00,
2013-11-30 13:21:00,50.0,30.0,-100.00,South,185,0.0,0.0,46,-99.99,,,-99.99,,2013-11-30 19:21:00,
2013-11-30 13:52:00,50.0,30.0,-100.00,SW,215,1.0,8.0,46,-99.99,,,-99.99,,2013-11-30 19:52:00,
2013-11-30 14:22:00,51.0,30.0,-100.00,SSE,165,0.0,8.0,44,-99.99,,,-99.99,,2013-11-30 20:22:00,
2013-11-30 15:22:00,51.0,31.0,-100.00,South,180,4.0,13.0,46,-99.99,,,-99.99,,2013-11-30 21:22:00,
2013-11-30 15:53:00,51.0,31.0,-100.00,SSW,200,0.0,7.0,47,-99.99,,,-99.99,,2013-11-30 21:53:00,
2013-11-30 16:23:00,49.0,31.0,-100.00,SW,220,0.0,0.0,49,-99.99,,,-99.99,,2013-11-30 22:23:00,
2013-11-30 16:52:00,47.0,31.0,-100.00,SW,230,0.0,0.0,54,-99.99,,,-99.99,,2013-11-30 22:52:00,
2013-11-30 17:22:00,45.0,31.0,-100.00,South,185,0.0,0.0,56,-99.99,,,-99.99,,2013-11-30 23:22:00,
2013-11-30 17:53:00,45.0,31.0,-100.00,South,180,0.0,0.0,57,-99.99,,,-99.99,,2013-11-30 23:53:00,
2013-11-30 18:21:00,44.0,30.0,-100.00,South,180,0.0,0.0,59,-99.99,,,-99.99,,2013-12-01 00:21:00,
2013-11-30 18:52:00,40.0,30.0,-100.00,SSE,150,0.0,0.0,66,-99.99,,,-99.99,,2013-12-01 00:52:00,
2013-11-30 19:21:00,40.0,30.0,-100.00,South,185,0.0,0.0,67,-99.99,,,-99.99,,2013-12-01 01:21:00,
2013-11-30 19:52:00,40.0,30.0,-100.00,South,180,0.0,0.0,68,-99.99,,,-99.99,,2013-12-01 01:52:00,
2013-11-30 20:21:00,36.0,29.0,-100.00,NW,315,0.0,0.0,75,-99.99,,,-99.99,,2013-12-01 02:21:00,
2013-11-30 20:52:00,36.0,29.0,-100.00,North,350,0.0,0.0,76,-99.99,,,-99.99,,2013-12-01 02:52:00,
2013-11-30 21:21:00,34.0,29.0,-100.00,NE,45,0.0,0.0,82,-99.99,,,-99.99,,2013-12-01 03:21:00,
2013-11-30 21:53:00,34.0,30.0,-100.00,NW,325,0.0,0.0,85,-99.99,,,-99.99,,2013-12-01 03:53:00,
2013-11-30 22:03:00,-999.0,-99.9,-100.00,NW,325,0.0,0.0,-999,-99.99,,,-99.99,,2013-12-01 04:03:00,
2013-11-30 22:22:00,32.0,29.0,-100.00,SW,215,0.0,0.0,88,-99.99,,,-99.99,,2013-12-01 04:22:00,
2013-11-30 22:52:00,31.0,28.0,-100.00,ENE,65,0.0,0.0,89,-99.99,,,-99.99,,2013-12-01 04:52:00,
2013-11-30 23:22:00,31.0,30.0,-100.00,ENE,65,0.0,0.0,94,-99.99,,,-99.99,,2013-12-01 05:22:00,
2013-11-30 23:53:00,31.0,29.0,-100.00,East,85,0.0,0.0,95,-99.99,,,-99.99,,2013-12-01 05:53:00,